sensor_id;sensor_type;location;lat;lon;timestamp;P1;durP1;ratioP1;P2;durP2;ratioP2
64252;SDS011;50592;52.958;-7.470;2023-02-28T00:00:40;17.25;;;10.10;;
64252;SDS011;50592;52.958;-7.470;2023-02-28T00:03:06;17.75;;;9.48;;
64252;SDS011;50592;52.958;-7.470;2023-02-28T00:05:32;13.77;;;9.23;;
64252;SDS011;50592;52.958;-7.470;2023-02-28T00:07:58;15.05;;;8.23;;
64252;SDS011;50592;52.958;-7.470;2023-02-28T00:10:26;13.38;;;9.13;;
64252;SDS011;50592;52.958;-7.470;2023-02-28T00:12:54;13.73;;;8.68;;
64252;SDS011;50592;52.958;-7.470;2023-02-28T00:15:22;17.30;;;9.63;;
64252;SDS011;50592;52.958;-7.470;2023-02-28T00:17:49;27.45;;;10.57;;
64252;SDS011;50592;52.958;-7.470;2023-02-28T00:20:15;34.22;;;12.27;;
64252;SDS011;50592;52.958;-7.470;2023-02-28T00:22:42;13.98;;;6.60;;
64252;SDS011;50592;52.958;-7.470;2023-02-28T00:25:10;14.65;;;5.68;;
64252;SDS011;50592;52.958;-7.470;2023-02-28T00:27:39;10.73;;;5.40;;
64252;SDS011;50592;52.958;-7.470;2023-02-28T00:30:06;9.77;;;4.40;;
64252;SDS011;50592;52.958;-7.470;2023-02-28T00:32:36;8.23;;;4.18;;
64252;SDS011;50592;52.958;-7.470;2023-02-28T00:35:02;10.13;;;4.60;;
64252;SDS011;50592;52.958;-7.470;2023-02-28T00:37:29;7.85;;;4.20;;
64252;SDS011;50592;52.958;-7.470;2023-02-28T00:39:55;5.57;;;3.60;;
64252;SDS011;50592;52.958;-7.470;2023-02-28T00:42:21;4.47;;;3.50;;
64252;SDS011;50592;52.958;-7.470;2023-02-28T00:44:47;7.40;;;3.60;;
64252;SDS011;50592;52.958;-7.470;2023-02-28T00:47:13;6.22;;;4.05;;
64252;SDS011;50592;52.958;-7.470;2023-02-28T00:49:39;4.50;;;3.25;;
64252;SDS011;50592;52.958;-7.470;2023-02-28T00:52:05;7.55;;;4.25;;
64252;SDS011;50592;52.958;-7.470;2023-02-28T00:54:31;5.15;;;3.95;;
64252;SDS011;50592;52.958;-7.470;2023-02-28T00:56:57;6.20;;;3.53;;
64252;SDS011;50592;52.958;-7.470;2023-02-28T00:59:24;7.70;;;4.05;;
64252;SDS011;50592;52.958;-7.470;2023-02-28T01:01:49;4.80;;;3.47;;
64252;SDS011;50592;52.958;-7.470;2023-02-28T01:04:15;6.13;;;4.15;;
64252;SDS011;50592;52.958;-7.470;2023-02-28T01:06:41;4.60;;;3.53;;
64252;SDS011;50592;52.958;-7.470;2023-02-28T01:09:09;7.38;;;4.25;;
64252;SDS011;50592;52.958;-7.470;2023-02-28T01:11:36;4.45;;;3.42;;
64252;SDS011;50592;52.958;-7.470;2023-02-28T01:14:03;6.00;;;3.92;;
64252;SDS011;50592;52.958;-7.470;2023-02-28T01:16:29;7.20;;;3.38;;
64252;SDS011;50592;52.958;-7.470;2023-02-28T01:18:56;6.68;;;4.00;;
64252;SDS011;50592;52.958;-7.470;2023-02-28T01:21:22;5.28;;;4.03;;
64252;SDS011;50592;52.958;-7.470;2023-02-28T01:23:49;5.65;;;3.17;;
64252;SDS011;50592;52.958;-7.470;2023-02-28T01:26:16;4.55;;;3.70;;
64252;SDS011;50592;52.958;-7.470;2023-02-28T01:28:45;8.30;;;3.97;;
64252;SDS011;50592;52.958;-7.470;2023-02-28T01:31:11;7.47;;;3.63;;
64252;SDS011;50592;52.958;-7.470;2023-02-28T01:33:37;4.90;;;3.40;;
64252;SDS011;50592;52.958;-7.470;2023-02-28T01:36:11;8.80;;;3.40;;
64252;SDS011;50592;52.958;-7.470;2023-02-28T01:38:38;4.25;;;3.63;;
64252;SDS011;50592;52.958;-7.470;2023-02-28T01:41:05;3.95;;;3.30;;
64252;SDS011;50592;52.958;-7.470;2023-02-28T01:46:11;7.55;;;3.30;;
64252;SDS011;50592;52.958;-7.470;2023-02-28T01:48:40;4.55;;;2.97;;
64252;SDS011;50592;52.958;-7.470;2023-02-28T01:51:20;6.95;;;2.97;;
64252;SDS011;50592;52.958;-7.470;2023-02-28T01:53:55;4.00;;;3.47;;
64252;SDS011;50592;52.958;-7.470;2023-02-28T01:56:26;4.28;;;2.97;;
64252;SDS011;50592;52.958;-7.470;2023-02-28T01:58:56;3.92;;;3.42;;
64252;SDS011;50592;52.958;-7.470;2023-02-28T02:01:22;8.88;;;4.03;;
64252;SDS011;50592;52.958;-7.470;2023-02-28T02:03:53;5.85;;;3.22;;
64252;SDS011;50592;52.958;-7.470;2023-02-28T02:06:24;5.35;;;3.78;;
64252;SDS011;50592;52.958;-7.470;2023-02-28T02:08:53;4.18;;;3.22;;
64252;SDS011;50592;52.958;-7.470;2023-02-28T02:11:20;4.00;;;3.28;;
64252;SDS011;50592;52.958;-7.470;2023-02-28T02:24:40;6.20;;;3.70;;
64252;SDS011;50592;52.958;-7.470;2023-02-28T02:27:18;7.10;;;3.50;;
64252;SDS011;50592;52.958;-7.470;2023-02-28T02:30:08;5.28;;;3.53;;
64252;SDS011;50592;52.958;-7.470;2023-02-28T02:41:36;6.18;;;4.00;;
64252;SDS011;50592;52.958;-7.470;2023-02-28T02:44:20;4.03;;;3.47;;
64252;SDS011;50592;52.958;-7.470;2023-02-28T02:46:51;5.88;;;3.00;;
64252;SDS011;50592;52.958;-7.470;2023-02-28T02:49:33;5.72;;;3.70;;
64252;SDS011;50592;52.958;-7.470;2023-02-28T02:52:04;4.47;;;3.53;;
64252;SDS011;50592;52.958;-7.470;2023-02-28T02:54:35;4.38;;;3.30;;
64252;SDS011;50592;52.958;-7.470;2023-02-28T02:57:09;5.57;;;3.90;;
64252;SDS011;50592;52.958;-7.470;2023-02-28T02:59:39;5.22;;;3.63;;
64252;SDS011;50592;52.958;-7.470;2023-02-28T03:02:09;3.83;;;3.47;;
64252;SDS011;50592;52.958;-7.470;2023-02-28T03:04:50;4.13;;;3.72;;
64252;SDS011;50592;52.958;-7.470;2023-02-28T03:07:20;4.55;;;3.67;;
64252;SDS011;50592;52.958;-7.470;2023-02-28T03:09:54;5.45;;;3.47;;
64252;SDS011;50592;52.958;-7.470;2023-02-28T03:12:22;5.10;;;3.25;;
64252;SDS011;50592;52.958;-7.470;2023-02-28T03:20:35;3.45;;;3.15;;
64252;SDS011;50592;52.958;-7.470;2023-02-28T03:23:19;4.43;;;3.15;;
64252;SDS011;50592;52.958;-7.470;2023-02-28T03:26:03;8.45;;;2.67;;
64252;SDS011;50592;52.958;-7.470;2023-02-28T03:28:48;5.25;;;3.17;;
64252;SDS011;50592;52.958;-7.470;2023-02-28T03:31:19;4.25;;;2.95;;
64252;SDS011;50592;52.958;-7.470;2023-02-28T03:33:53;4.85;;;3.70;;
64252;SDS011;50592;52.958;-7.470;2023-02-28T03:36:27;8.13;;;3.33;;
64252;SDS011;50592;52.958;-7.470;2023-02-28T03:38:59;4.75;;;3.42;;
64252;SDS011;50592;52.958;-7.470;2023-02-28T03:41:38;3.40;;;2.90;;
64252;SDS011;50592;52.958;-7.470;2023-02-28T03:47:04;4.47;;;3.13;;
64252;SDS011;50592;52.958;-7.470;2023-02-28T03:49:44;5.95;;;3.08;;
64252;SDS011;50592;52.958;-7.470;2023-02-28T03:52:15;5.38;;;2.88;;
64252;SDS011;50592;52.958;-7.470;2023-02-28T03:54:44;7.18;;;2.92;;
64252;SDS011;50592;52.958;-7.470;2023-02-28T03:57:23;4.47;;;3.28;;
64252;SDS011;50592;52.958;-7.470;2023-02-28T04:00:06;3.47;;;2.83;;
64252;SDS011;50592;52.958;-7.470;2023-02-28T04:02:38;3.55;;;2.70;;
64252;SDS011;50592;52.958;-7.470;2023-02-28T04:05:05;4.85;;;2.80;;
64252;SDS011;50592;52.958;-7.470;2023-02-28T04:07:31;5.03;;;3.08;;
64252;SDS011;50592;52.958;-7.470;2023-02-28T04:09:57;3.80;;;2.70;;
64252;SDS011;50592;52.958;-7.470;2023-02-28T04:12:23;5.90;;;2.65;;
64252;SDS011;50592;52.958;-7.470;2023-02-28T04:14:49;4.97;;;3.17;;
64252;SDS011;50592;52.958;-7.470;2023-02-28T04:17:16;5.43;;;3.05;;
64252;SDS011;50592;52.958;-7.470;2023-02-28T04:19:42;5.05;;;2.78;;
64252;SDS011;50592;52.958;-7.470;2023-02-28T04:22:08;4.05;;;2.83;;
64252;SDS011;50592;52.958;-7.470;2023-02-28T04:24:34;4.78;;;3.08;;
64252;SDS011;50592;52.958;-7.470;2023-02-28T04:27:01;3.78;;;3.28;;
64252;SDS011;50592;52.958;-7.470;2023-02-28T04:29:29;4.95;;;3.22;;
64252;SDS011;50592;52.958;-7.470;2023-02-28T04:31:57;4.07;;;2.72;;
64252;SDS011;50592;52.958;-7.470;2023-02-28T04:34:24;4.97;;;3.15;;
64252;SDS011;50592;52.958;-7.470;2023-02-28T04:36:51;5.63;;;3.40;;
64252;SDS011;50592;52.958;-7.470;2023-02-28T04:39:20;9.13;;;3.45;;
64252;SDS011;50592;52.958;-7.470;2023-02-28T04:41:46;5.82;;;3.40;;
64252;SDS011;50592;52.958;-7.470;2023-02-28T04:44:13;5.47;;;3.45;;
64252;SDS011;50592;52.958;-7.470;2023-02-28T04:46:39;4.63;;;2.72;;
64252;SDS011;50592;52.958;-7.470;2023-02-28T04:49:05;4.07;;;3.17;;
64252;SDS011;50592;52.958;-7.470;2023-02-28T04:51:31;4.85;;;2.90;;
64252;SDS011;50592;52.958;-7.470;2023-02-28T04:53:56;6.68;;;3.05;;
64252;SDS011;50592;52.958;-7.470;2023-02-28T04:56:22;6.95;;;2.92;;
64252;SDS011;50592;52.958;-7.470;2023-02-28T04:58:48;4.35;;;2.80;;
64252;SDS011;50592;52.958;-7.470;2023-02-28T05:01:31;5.10;;;3.33;;
64252;SDS011;50592;52.958;-7.470;2023-02-28T05:03:59;2.70;;;1.95;;
64252;SDS011;50592;52.958;-7.470;2023-02-28T05:06:27;4.57;;;3.40;;
64252;SDS011;50592;52.958;-7.470;2023-02-28T05:08:55;6.13;;;3.28;;
64252;SDS011;50592;52.958;-7.470;2023-02-28T05:11:23;7.68;;;3.22;;
64252;SDS011;50592;52.958;-7.470;2023-02-28T05:13:51;6.20;;;3.30;;
64252;SDS011;50592;52.958;-7.470;2023-02-28T05:16:17;8.13;;;3.75;;
64252;SDS011;50592;52.958;-7.470;2023-02-28T05:18:44;4.43;;;2.97;;
64252;SDS011;50592;52.958;-7.470;2023-02-28T05:21:21;8.68;;;3.78;;
64252;SDS011;50592;52.958;-7.470;2023-02-28T05:23:49;6.38;;;3.80;;
64252;SDS011;50592;52.958;-7.470;2023-02-28T05:26:15;5.22;;;3.15;;
64252;SDS011;50592;52.958;-7.470;2023-02-28T05:28:40;6.50;;;3.90;;
64252;SDS011;50592;52.958;-7.470;2023-02-28T05:31:07;7.50;;;4.20;;
64252;SDS011;50592;52.958;-7.470;2023-02-28T05:33:36;6.55;;;4.07;;
64252;SDS011;50592;52.958;-7.470;2023-02-28T05:36:02;4.80;;;3.95;;
64252;SDS011;50592;52.958;-7.470;2023-02-28T05:38:28;6.07;;;4.13;;
64252;SDS011;50592;52.958;-7.470;2023-02-28T05:40:53;8.55;;;4.57;;
64252;SDS011;50592;52.958;-7.470;2023-02-28T05:43:19;6.97;;;4.40;;
64252;SDS011;50592;52.958;-7.470;2023-02-28T05:45:45;6.50;;;4.28;;
64252;SDS011;50592;52.958;-7.470;2023-02-28T05:48:11;6.20;;;4.35;;
64252;SDS011;50592;52.958;-7.470;2023-02-28T05:50:37;7.25;;;4.95;;
64252;SDS011;50592;52.958;-7.470;2023-02-28T05:53:03;4.80;;;4.30;;
64252;SDS011;50592;52.958;-7.470;2023-02-28T05:55:28;5.93;;;4.15;;
64252;SDS011;50592;52.958;-7.470;2023-02-28T05:57:54;5.75;;;4.32;;
64252;SDS011;50592;52.958;-7.470;2023-02-28T06:00:21;7.45;;;4.30;;
64252;SDS011;50592;52.958;-7.470;2023-02-28T06:02:47;13.57;;;4.45;;
64252;SDS011;50592;52.958;-7.470;2023-02-28T06:05:14;9.35;;;3.88;;
64252;SDS011;50592;52.958;-7.470;2023-02-28T06:07:42;6.32;;;4.28;;
64252;SDS011;50592;52.958;-7.470;2023-02-28T06:10:09;6.55;;;4.70;;
64252;SDS011;50592;52.958;-7.470;2023-02-28T06:12:37;7.05;;;4.53;;
64252;SDS011;50592;52.958;-7.470;2023-02-28T06:15:03;7.25;;;4.00;;
64252;SDS011;50592;52.958;-7.470;2023-02-28T06:17:29;5.05;;;3.83;;
64252;SDS011;50592;52.958;-7.470;2023-02-28T06:19:55;6.53;;;4.07;;
64252;SDS011;50592;52.958;-7.470;2023-02-28T06:22:21;4.68;;;3.97;;
64252;SDS011;50592;52.958;-7.470;2023-02-28T06:24:46;5.10;;;3.55;;
64252;SDS011;50592;52.958;-7.470;2023-02-28T06:27:12;7.90;;;4.53;;
64252;SDS011;50592;52.958;-7.470;2023-02-28T06:29:38;5.60;;;4.13;;
64252;SDS011;50592;52.958;-7.470;2023-02-28T06:32:07;5.18;;;4.07;;
64252;SDS011;50592;52.958;-7.470;2023-02-28T06:34:33;5.32;;;3.97;;
64252;SDS011;50592;52.958;-7.470;2023-02-28T06:36:59;10.18;;;4.50;;
64252;SDS011;50592;52.958;-7.470;2023-02-28T06:39:28;4.63;;;4.10;;
64252;SDS011;50592;52.958;-7.470;2023-02-28T06:41:54;8.63;;;4.80;;
64252;SDS011;50592;52.958;-7.470;2023-02-28T06:44:21;6.45;;;4.03;;
64252;SDS011;50592;52.958;-7.470;2023-02-28T06:46:47;5.40;;;4.43;;
64252;SDS011;50592;52.958;-7.470;2023-02-28T06:49:13;6.85;;;4.70;;
64252;SDS011;50592;52.958;-7.470;2023-02-28T06:51:40;9.48;;;5.25;;
64252;SDS011;50592;52.958;-7.470;2023-02-28T06:54:10;8.88;;;4.43;;
64252;SDS011;50592;52.958;-7.470;2023-02-28T06:56:37;5.18;;;4.03;;
64252;SDS011;50592;52.958;-7.470;2023-02-28T06:59:03;7.85;;;4.60;;
64252;SDS011;50592;52.958;-7.470;2023-02-28T07:01:29;7.05;;;4.18;;
64252;SDS011;50592;52.958;-7.470;2023-02-28T07:03:57;6.40;;;3.78;;
64252;SDS011;50592;52.958;-7.470;2023-02-28T07:06:23;6.70;;;4.32;;
64252;SDS011;50592;52.958;-7.470;2023-02-28T07:08:50;5.43;;;3.75;;
64252;SDS011;50592;52.958;-7.470;2023-02-28T07:11:18;9.65;;;4.22;;
64252;SDS011;50592;52.958;-7.470;2023-02-28T07:13:44;9.90;;;4.07;;
64252;SDS011;50592;52.958;-7.470;2023-02-28T07:16:11;5.60;;;4.28;;
64252;SDS011;50592;52.958;-7.470;2023-02-28T07:18:38;4.50;;;3.22;;
64252;SDS011;50592;52.958;-7.470;2023-02-28T07:21:05;4.13;;;3.20;;
64252;SDS011;50592;52.958;-7.470;2023-02-28T07:23:32;5.72;;;3.65;;
64252;SDS011;50592;52.958;-7.470;2023-02-28T07:25:58;5.13;;;3.42;;
64252;SDS011;50592;52.958;-7.470;2023-02-28T07:28:24;6.10;;;3.28;;
64252;SDS011;50592;52.958;-7.470;2023-02-28T07:30:50;7.20;;;3.15;;
64252;SDS011;50592;52.958;-7.470;2023-02-28T07:33:16;11.57;;;3.53;;
64252;SDS011;50592;52.958;-7.470;2023-02-28T07:35:42;6.93;;;3.97;;
64252;SDS011;50592;52.958;-7.470;2023-02-28T07:38:09;10.25;;;3.47;;
64252;SDS011;50592;52.958;-7.470;2023-02-28T07:40:35;8.60;;;3.67;;
64252;SDS011;50592;52.958;-7.470;2023-02-28T07:43:01;7.10;;;3.35;;
64252;SDS011;50592;52.958;-7.470;2023-02-28T07:45:29;8.05;;;3.20;;
64252;SDS011;50592;52.958;-7.470;2023-02-28T07:47:55;7.07;;;3.40;;
64252;SDS011;50592;52.958;-7.470;2023-02-28T07:50:21;4.80;;;3.00;;
64252;SDS011;50592;52.958;-7.470;2023-02-28T07:52:47;5.55;;;4.03;;
64252;SDS011;50592;52.958;-7.470;2023-02-28T07:55:13;11.68;;;7.25;;
64252;SDS011;50592;52.958;-7.470;2023-02-28T07:57:40;12.20;;;6.85;;
64252;SDS011;50592;52.958;-7.470;2023-02-28T08:00:07;9.05;;;6.10;;
64252;SDS011;50592;52.958;-7.470;2023-02-28T08:02:39;11.40;;;5.45;;
64252;SDS011;50592;52.958;-7.470;2023-02-28T08:05:05;5.60;;;3.53;;
64252;SDS011;50592;52.958;-7.470;2023-02-28T08:07:32;8.85;;;4.82;;
64252;SDS011;50592;52.958;-7.470;2023-02-28T08:09:58;10.23;;;4.00;;
64252;SDS011;50592;52.958;-7.470;2023-02-28T08:12:25;8.95;;;4.35;;
64252;SDS011;50592;52.958;-7.470;2023-02-28T08:14:51;6.35;;;3.30;;
64252;SDS011;50592;52.958;-7.470;2023-02-28T08:17:17;4.07;;;2.92;;
64252;SDS011;50592;52.958;-7.470;2023-02-28T08:19:45;5.90;;;2.97;;
64252;SDS011;50592;52.958;-7.470;2023-02-28T08:22:11;5.70;;;3.35;;
64252;SDS011;50592;52.958;-7.470;2023-02-28T08:24:37;5.57;;;2.80;;
64252;SDS011;50592;52.958;-7.470;2023-02-28T08:27:03;6.15;;;3.67;;
64252;SDS011;50592;52.958;-7.470;2023-02-28T08:29:29;4.97;;;3.20;;
64252;SDS011;50592;52.958;-7.470;2023-02-28T08:31:55;9.48;;;4.32;;
64252;SDS011;50592;52.958;-7.470;2023-02-28T08:34:21;5.60;;;3.58;;
64252;SDS011;50592;52.958;-7.470;2023-02-28T08:36:47;7.07;;;3.47;;
64252;SDS011;50592;52.958;-7.470;2023-02-28T08:39:12;9.40;;;4.28;;
64252;SDS011;50592;52.958;-7.470;2023-02-28T08:41:38;9.18;;;4.28;;
64252;SDS011;50592;52.958;-7.470;2023-02-28T08:44:04;8.70;;;4.10;;
64252;SDS011;50592;52.958;-7.470;2023-02-28T08:46:30;7.43;;;4.13;;
64252;SDS011;50592;52.958;-7.470;2023-02-28T08:48:56;9.63;;;4.25;;
64252;SDS011;50592;52.958;-7.470;2023-02-28T08:51:26;5.95;;;3.60;;
64252;SDS011;50592;52.958;-7.470;2023-02-28T08:53:54;5.97;;;3.55;;
64252;SDS011;50592;52.958;-7.470;2023-02-28T08:56:21;5.55;;;3.75;;
64252;SDS011;50592;52.958;-7.470;2023-02-28T08:58:48;11.48;;;4.40;;
64252;SDS011;50592;52.958;-7.470;2023-02-28T09:01:16;5.68;;;3.03;;
64252;SDS011;50592;52.958;-7.470;2023-02-28T09:03:51;7.60;;;5.17;;
64252;SDS011;50592;52.958;-7.470;2023-02-28T09:06:17;5.65;;;3.38;;
64252;SDS011;50592;52.958;-7.470;2023-02-28T09:08:44;5.40;;;3.25;;
64252;SDS011;50592;52.958;-7.470;2023-02-28T09:11:10;3.67;;;3.00;;
64252;SDS011;50592;52.958;-7.470;2023-02-28T09:13:36;4.75;;;3.20;;
64252;SDS011;50592;52.958;-7.470;2023-02-28T09:16:04;4.43;;;3.22;;
64252;SDS011;50592;52.958;-7.470;2023-02-28T09:18:31;13.20;;;4.18;;
64252;SDS011;50592;52.958;-7.470;2023-02-28T09:20:58;3.90;;;2.67;;
64252;SDS011;50592;52.958;-7.470;2023-02-28T09:23:24;7.60;;;4.00;;
64252;SDS011;50592;52.958;-7.470;2023-02-28T09:25:51;7.13;;;3.13;;
64252;SDS011;50592;52.958;-7.470;2023-02-28T09:28:19;6.88;;;3.10;;
64252;SDS011;50592;52.958;-7.470;2023-02-28T09:30:46;5.88;;;3.42;;
64252;SDS011;50592;52.958;-7.470;2023-02-28T09:33:14;5.47;;;2.83;;
64252;SDS011;50592;52.958;-7.470;2023-02-28T09:35:41;4.53;;;3.22;;
64252;SDS011;50592;52.958;-7.470;2023-02-28T09:38:08;4.35;;;2.83;;
64252;SDS011;50592;52.958;-7.470;2023-02-28T09:40:39;8.38;;;2.97;;
64252;SDS011;50592;52.958;-7.470;2023-02-28T09:43:16;5.80;;;3.40;;
64252;SDS011;50592;52.958;-7.470;2023-02-28T09:45:49;7.65;;;3.22;;
64252;SDS011;50592;52.958;-7.470;2023-02-28T09:48:25;6.90;;;3.78;;
64252;SDS011;50592;52.958;-7.470;2023-02-28T09:51:04;5.93;;;2.95;;
64252;SDS011;50592;52.958;-7.470;2023-02-28T09:53:38;9.05;;;3.70;;
64252;SDS011;50592;52.958;-7.470;2023-02-28T10:04:40;6.40;;;3.22;;
64252;SDS011;50592;52.958;-7.470;2023-02-28T10:12:56;6.25;;;2.58;;
64252;SDS011;50592;52.958;-7.470;2023-02-28T10:15:25;5.07;;;2.15;;
64252;SDS011;50592;52.958;-7.470;2023-02-28T10:17:57;5.63;;;2.42;;
64252;SDS011;50592;52.958;-7.470;2023-02-28T10:20:27;3.15;;;2.03;;
64252;SDS011;50592;52.958;-7.470;2023-02-28T10:22:57;8.10;;;2.92;;
64252;SDS011;50592;52.958;-7.470;2023-02-28T10:25:33;11.23;;;2.45;;
64252;SDS011;50592;52.958;-7.470;2023-02-28T10:30:40;4.07;;;2.60;;
64252;SDS011;50592;52.958;-7.470;2023-02-28T10:33:14;3.63;;;2.03;;
64252;SDS011;50592;52.958;-7.470;2023-02-28T10:36:03;5.22;;;2.70;;
64252;SDS011;50592;52.958;-7.470;2023-02-28T10:38:36;5.95;;;2.63;;
64252;SDS011;50592;52.958;-7.470;2023-02-28T10:41:07;5.38;;;2.35;;
64252;SDS011;50592;52.958;-7.470;2023-02-28T10:43:38;6.32;;;2.80;;
64252;SDS011;50592;52.958;-7.470;2023-02-28T10:51:14;5.28;;;2.30;;
64252;SDS011;50592;52.958;-7.470;2023-02-28T10:53:51;8.15;;;1.70;;
64252;SDS011;50592;52.958;-7.470;2023-02-28T10:56:21;3.10;;;2.30;;
64252;SDS011;50592;52.958;-7.470;2023-02-28T10:59:22;4.35;;;1.60;;
64252;SDS011;50592;52.958;-7.470;2023-02-28T11:01:53;3.10;;;1.83;;
64252;SDS011;50592;52.958;-7.470;2023-02-28T11:09:48;3.63;;;1.92;;
64252;SDS011;50592;52.958;-7.470;2023-02-28T11:14:57;4.57;;;2.17;;
64252;SDS011;50592;52.958;-7.470;2023-02-28T11:17:28;5.13;;;1.20;;
64252;SDS011;50592;52.958;-7.470;2023-02-28T11:19:57;3.08;;;1.95;;
64252;SDS011;50592;52.958;-7.470;2023-02-28T11:22:28;5.00;;;2.38;;
64252;SDS011;50592;52.958;-7.470;2023-02-28T11:24:57;2.92;;;1.80;;
64252;SDS011;50592;52.958;-7.470;2023-02-28T11:29:56;2.15;;;1.40;;
64252;SDS011;50592;52.958;-7.470;2023-02-28T11:32:27;3.10;;;2.40;;
64252;SDS011;50592;52.958;-7.470;2023-02-28T11:37:36;2.58;;;1.75;;
64252;SDS011;50592;52.958;-7.470;2023-02-28T11:40:14;4.15;;;1.60;;
64252;SDS011;50592;52.958;-7.470;2023-02-28T11:46:07;2.28;;;1.77;;
64252;SDS011;50592;52.958;-7.470;2023-02-28T11:49:05;3.95;;;2.47;;
64252;SDS011;50592;52.958;-7.470;2023-02-28T11:54:28;2.58;;;2.38;;
64252;SDS011;50592;52.958;-7.470;2023-02-28T12:00:04;2.28;;;1.52;;
64252;SDS011;50592;52.958;-7.470;2023-02-28T12:03:15;5.68;;;2.05;;
64252;SDS011;50592;52.958;-7.470;2023-02-28T12:28:37;4.20;;;2.13;;
64252;SDS011;50592;52.958;-7.470;2023-02-28T12:31:14;4.53;;;3.10;;
64252;SDS011;50592;52.958;-7.470;2023-02-28T12:33:47;3.88;;;2.88;;
64252;SDS011;50592;52.958;-7.470;2023-02-28T12:36:16;4.47;;;2.92;;
64252;SDS011;50592;52.958;-7.470;2023-02-28T12:41:36;3.92;;;2.13;;
64252;SDS011;50592;52.958;-7.470;2023-02-28T12:44:09;3.70;;;2.90;;
64252;SDS011;50592;52.958;-7.470;2023-02-28T12:46:43;4.55;;;1.85;;
64252;SDS011;50592;52.958;-7.470;2023-02-28T12:49:22;2.63;;;2.25;;
64252;SDS011;50592;52.958;-7.470;2023-02-28T12:51:52;2.47;;;1.85;;
64252;SDS011;50592;52.958;-7.470;2023-02-28T12:54:21;5.07;;;2.05;;
64252;SDS011;50592;52.958;-7.470;2023-02-28T12:57:06;5.60;;;2.30;;
64252;SDS011;50592;52.958;-7.470;2023-02-28T13:10:40;3.83;;;1.30;;
64252;SDS011;50592;52.958;-7.470;2023-02-28T13:13:16;5.07;;;1.90;;
64252;SDS011;50592;52.958;-7.470;2023-02-28T13:21:01;3.63;;;2.25;;
64252;SDS011;50592;52.958;-7.470;2023-02-28T13:26:11;3.75;;;2.00;;
64252;SDS011;50592;52.958;-7.470;2023-02-28T13:31:24;2.92;;;1.75;;
64252;SDS011;50592;52.958;-7.470;2023-02-28T13:38:48;1.65;;;1.23;;
64252;SDS011;50592;52.958;-7.470;2023-02-28T13:51:55;2.72;;;1.55;;
64252;SDS011;50592;52.958;-7.470;2023-02-28T14:00:39;3.42;;;1.92;;
64252;SDS011;50592;52.958;-7.470;2023-02-28T14:05:44;1.42;;;1.08;;
64252;SDS011;50592;52.958;-7.470;2023-02-28T14:08:18;1.73;;;1.02;;
64252;SDS011;50592;52.958;-7.470;2023-02-28T14:10:48;1.65;;;1.33;;
64252;SDS011;50592;52.958;-7.470;2023-02-28T14:15:58;2.65;;;1.95;;
64252;SDS011;50592;52.958;-7.470;2023-02-28T14:18:28;2.63;;;2.40;;
64252;SDS011;50592;52.958;-7.470;2023-02-28T14:21:38;3.58;;;2.25;;
64252;SDS011;50592;52.958;-7.470;2023-02-28T14:37:47;1.85;;;1.60;;
64252;SDS011;50592;52.958;-7.470;2023-02-28T14:40:19;1.90;;;1.70;;
64252;SDS011;50592;52.958;-7.470;2023-02-28T14:42:55;2.08;;;1.38;;
64252;SDS011;50592;52.958;-7.470;2023-02-28T14:45:23;2.00;;;1.35;;
64252;SDS011;50592;52.958;-7.470;2023-02-28T14:47:49;1.45;;;1.17;;
64252;SDS011;50592;52.958;-7.470;2023-02-28T14:50:17;1.60;;;1.48;;
64252;SDS011;50592;52.958;-7.470;2023-02-28T14:52:50;1.33;;;1.23;;
64252;SDS011;50592;52.958;-7.470;2023-02-28T14:55:18;3.25;;;1.60;;
64252;SDS011;50592;52.958;-7.470;2023-02-28T14:57:55;2.63;;;1.63;;
64252;SDS011;50592;52.958;-7.470;2023-02-28T15:00:24;1.10;;;1.00;;
64252;SDS011;50592;52.958;-7.470;2023-02-28T15:02:55;3.00;;;1.52;;
64252;SDS011;50592;52.958;-7.470;2023-02-28T15:10:39;1.50;;;1.40;;
64252;SDS011;50592;52.958;-7.470;2023-02-28T15:13:11;3.90;;;1.85;;
64252;SDS011;50592;52.958;-7.470;2023-02-28T15:15:41;2.70;;;1.88;;
64252;SDS011;50592;52.958;-7.470;2023-02-28T15:18:27;5.07;;;2.25;;
64252;SDS011;50592;52.958;-7.470;2023-02-28T15:20:59;3.28;;;1.80;;
64252;SDS011;50592;52.958;-7.470;2023-02-28T15:23:29;2.20;;;1.60;;
64252;SDS011;50592;52.958;-7.470;2023-02-28T15:25:56;2.30;;;1.98;;
64252;SDS011;50592;52.958;-7.470;2023-02-28T15:28:22;2.13;;;1.30;;
64252;SDS011;50592;52.958;-7.470;2023-02-28T15:30:50;2.15;;;1.85;;
64252;SDS011;50592;52.958;-7.470;2023-02-28T15:33:28;1.90;;;1.42;;
64252;SDS011;50592;52.958;-7.470;2023-02-28T15:36:05;2.38;;;2.10;;
64252;SDS011;50592;52.958;-7.470;2023-02-28T15:38:33;5.50;;;2.13;;
64252;SDS011;50592;52.958;-7.470;2023-02-28T15:41:02;2.10;;;1.85;;
64252;SDS011;50592;52.958;-7.470;2023-02-28T15:43:37;7.00;;;2.63;;
64252;SDS011;50592;52.958;-7.470;2023-02-28T15:46:05;6.28;;;3.75;;
64252;SDS011;50592;52.958;-7.470;2023-02-28T15:48:34;6.22;;;3.75;;
64252;SDS011;50592;52.958;-7.470;2023-02-28T15:56:26;4.22;;;3.13;;
64252;SDS011;50592;52.958;-7.470;2023-02-28T15:58:57;4.55;;;3.25;;
64252;SDS011;50592;52.958;-7.470;2023-02-28T16:01:33;6.57;;;3.40;;
64252;SDS011;50592;52.958;-7.470;2023-02-28T16:04:03;5.90;;;3.50;;
64252;SDS011;50592;52.958;-7.470;2023-02-28T16:08:56;4.03;;;2.97;;
64252;SDS011;50592;52.958;-7.470;2023-02-28T16:11:22;3.28;;;2.85;;
64252;SDS011;50592;52.958;-7.470;2023-02-28T16:13:48;5.22;;;2.80;;
64252;SDS011;50592;52.958;-7.470;2023-02-28T16:16:19;8.80;;;3.78;;
64252;SDS011;50592;52.958;-7.470;2023-02-28T16:18:47;6.05;;;3.78;;
64252;SDS011;50592;52.958;-7.470;2023-02-28T16:21:12;6.65;;;4.15;;
64252;SDS011;50592;52.958;-7.470;2023-02-28T16:23:38;3.63;;;3.10;;
64252;SDS011;50592;52.958;-7.470;2023-02-28T16:26:04;4.22;;;2.85;;
64252;SDS011;50592;52.958;-7.470;2023-02-28T16:28:33;3.58;;;2.80;;
64252;SDS011;50592;52.958;-7.470;2023-02-28T16:31:02;3.72;;;3.00;;
64252;SDS011;50592;52.958;-7.470;2023-02-28T16:33:31;10.35;;;4.55;;
64252;SDS011;50592;52.958;-7.470;2023-02-28T16:35:58;5.65;;;2.97;;
64252;SDS011;50592;52.958;-7.470;2023-02-28T16:38:24;6.70;;;3.55;;
64252;SDS011;50592;52.958;-7.470;2023-02-28T16:40:50;6.07;;;3.53;;
64252;SDS011;50592;52.958;-7.470;2023-02-28T16:43:18;4.88;;;3.67;;
64252;SDS011;50592;52.958;-7.470;2023-02-28T16:45:47;4.43;;;3.60;;
64252;SDS011;50592;52.958;-7.470;2023-02-28T16:48:14;5.80;;;3.33;;
64252;SDS011;50592;52.958;-7.470;2023-02-28T16:50:41;5.85;;;3.58;;
64252;SDS011;50592;52.958;-7.470;2023-02-28T16:53:10;4.03;;;3.00;;
64252;SDS011;50592;52.958;-7.470;2023-02-28T16:55:35;4.28;;;3.58;;
64252;SDS011;50592;52.958;-7.470;2023-02-28T16:58:02;7.35;;;4.18;;
64252;SDS011;50592;52.958;-7.470;2023-02-28T17:00:29;10.00;;;3.72;;
64252;SDS011;50592;52.958;-7.470;2023-02-28T17:02:57;6.28;;;3.42;;
64252;SDS011;50592;52.958;-7.470;2023-02-28T17:05:24;6.28;;;3.25;;
64252;SDS011;50592;52.958;-7.470;2023-02-28T17:07:52;7.13;;;4.75;;
64252;SDS011;50592;52.958;-7.470;2023-02-28T17:10:19;5.72;;;4.13;;
64252;SDS011;50592;52.958;-7.470;2023-02-28T17:12:49;4.32;;;3.58;;
64252;SDS011;50592;52.958;-7.470;2023-02-28T17:15:16;9.90;;;5.78;;
64252;SDS011;50592;52.958;-7.470;2023-02-28T17:17:43;6.03;;;4.53;;
64252;SDS011;50592;52.958;-7.470;2023-02-28T17:20:13;5.65;;;4.05;;
64252;SDS011;50592;52.958;-7.470;2023-02-28T17:22:42;5.13;;;4.35;;
64252;SDS011;50592;52.958;-7.470;2023-02-28T17:25:08;8.10;;;4.97;;
64252;SDS011;50592;52.958;-7.470;2023-02-28T17:27:35;8.90;;;5.45;;
64252;SDS011;50592;52.958;-7.470;2023-02-28T17:30:02;5.15;;;3.83;;
64252;SDS011;50592;52.958;-7.470;2023-02-28T17:32:34;5.78;;;3.80;;
64252;SDS011;50592;52.958;-7.470;2023-02-28T17:35:00;4.95;;;4.20;;
64252;SDS011;50592;52.958;-7.470;2023-02-28T17:37:26;6.00;;;4.10;;
64252;SDS011;50592;52.958;-7.470;2023-02-28T17:39:52;4.65;;;3.90;;
64252;SDS011;50592;52.958;-7.470;2023-02-28T17:42:17;4.90;;;3.97;;